• Join FlightAware (Why Join?)
  • Login
  • US Flag 
04:13AM EDT


 

Airport Tracker/Info


-or-


 

Live Flight TrackerFlight Track Log ✈ TAM8005 ✈ 03-Oct-2013 ✈ SABE / AEP - SBGR / GRU

Flight Track Log - Related Links

Times and Time Zones

All times are in EDT time to prevent confusion due to time zone crossing. See the TAM8005 flight status page for this flight to view local times or setup timezone preferences in your user account.

Time Position Orientation Groundspeed Altitude Reporting Facility
EDT Latitude Longitude Course Direction KTS MPH feet Rate Location/Type
02:45PM -32.5637 -55.9716 46° Northeast  Level Estimated
02:46PM -32.4940 -55.8893 45° Northeast  Level Estimated
02:47PM -32.4243 -55.8071 45° Northeast  Level Estimated
02:48PM -32.3546 -55.7251 45° Northeast  Level Estimated
02:49PM -32.2848 -55.6432 45° Northeast  Level Estimated
02:50PM -32.2149 -55.5614 45° Northeast  Level Estimated
02:51PM -32.1450 -55.4797 45° Northeast  Level Estimated
02:52PM -32.0750 -55.3982 45° Northeast  Level Estimated
02:53PM -32.0050 -55.3168 45° Northeast  Level Estimated
02:54PM -31.9349 -55.2355 45° Northeast  Level Estimated
02:55PM -31.8648 -55.1543 45° Northeast  Level Estimated
02:56PM -31.7946 -55.0733 44° Northeast  Level Estimated
02:57PM -31.7244 -54.9924 44° Northeast  Level Estimated
02:58PM -31.6541 -54.9115 44° Northeast  Level Estimated
02:59PM -31.5838 -54.8309 44° Northeast  Level Estimated
03:00PM -31.5134 -54.7503 44° Northeast  Level Estimated
03:01PM -31.4430 -54.6699 44° Northeast  Level Estimated
03:02PM -31.3725 -54.5896 44° Northeast  Level Estimated
03:03PM -31.3020 -54.5094 44° Northeast  Level Estimated
03:04PM -31.2314 -54.4293 44° Northeast  Level Estimated
03:05PM -31.1608 -54.3494 44° Northeast  Level Estimated
03:06PM -31.0901 -54.2696 44° Northeast  Level Estimated
03:07PM -31.0194 -54.1898 44° Northeast  Level Estimated
03:08PM -30.9486 -54.1102 44° Northeast  Level Estimated
03:09PM -30.8778 -54.0308 44° Northeast  Level Estimated
03:10PM -30.8069 -53.9514 44° Northeast  Level Estimated
03:11PM -30.7360 -53.8722 44° Northeast  Level Estimated
03:12PM -30.6650 -53.7930 44° Northeast  Level Estimated
03:13PM -30.5940 -53.7140 44° Northeast  Level Estimated
03:14PM -30.5229 -53.6351 44° Northeast  Level Estimated
03:15PM -30.4518 -53.5564 44° Northeast  Level Estimated
03:16PM -30.3807 -53.4777 44° Northeast  Level Estimated
03:17PM -30.3095 -53.3992 44° Northeast  Level Estimated
03:18PM -30.2382 -53.3207 44° Northeast  Level Estimated
03:19PM -30.1669 -53.2424 44° Northeast  Level Estimated
03:20PM -30.0956 -53.1642 43° Northeast  Level Estimated
03:21PM -30.0242 -53.0861 43° Northeast  Level Estimated
03:22PM -29.9527 -53.0081 43° Northeast  Level Estimated
03:23PM -29.8813 -52.9302 43° Northeast  Level Estimated
03:24PM -29.8097 -52.8525 43° Northeast  Level Estimated
03:25PM -29.7381 -52.7748 43° Northeast  Level Estimated
03:26PM -29.6665 -52.6973 43° Northeast  Level Estimated
03:27PM -29.5949 -52.6199 43° Northeast  Level Estimated
03:28PM -29.5232 -52.5425 43° Northeast  Level Estimated
03:29PM -29.4514 -52.4653 43° Northeast  Level Estimated
03:30PM -29.3796 -52.3882 43° Northeast  Level Estimated
03:31PM -29.3078 -52.3112 43° Northeast  Level Estimated
03:32PM -29.2359 -52.2344 43° Northeast  Level Estimated
03:33PM -29.1639 -52.1576 43° Northeast  Level Estimated
03:34PM -29.0920 -52.0809 43° Northeast  Level Estimated
03:35PM -29.0200 -52.0044 43° Northeast  Level Estimated
03:36PM -28.9479 -51.9279 43° Northeast  Level Estimated
03:37PM -28.8758 -51.8516 43° Northeast  Level Estimated
03:38PM -28.8036 -51.7753 43° Northeast  Level Estimated
03:39PM -28.7315 -51.6992 43° Northeast  Level Estimated
03:40PM -28.6592 -51.6232 43° Northeast  Level Estimated
03:41PM -28.5870 -51.5473 43° Northeast  Level Estimated
03:42PM -28.5146 -51.4714 43° Northeast  Level Estimated
03:43PM -28.4423 -51.3957 43° Northeast  Level Estimated
03:44PM -28.3699 -51.3201 43° Northeast  Level Estimated
03:45PM -28.2974 -51.2446 43° Northeast  Level Estimated
03:46PM -28.2250 -51.1692 43° Northeast  Level Estimated
03:47PM -28.1524 -51.0939 42° Northeast  Level Estimated
03:48PM -28.0798 -51.0187 42° Northeast  Level Estimated
03:49PM -28.0072 -50.9436 42° Northeast  Level Estimated
03:50PM -27.9346 -50.8686 42° Northeast  Level Estimated
03:51PM -27.8619 -50.7937 42° Northeast  Level Estimated
03:52PM -27.7892 -50.7189 42° Northeast  Level Estimated
03:53PM -27.7164 -50.6442 42° Northeast  Level Estimated
03:54PM -27.6436 -50.5696 42° Northeast  Level Estimated
03:55PM -27.5707 -50.4951 42° Northeast  Level Estimated
03:56PM -27.4979 -50.4207 42° Northeast  Level Estimated
03:57PM -27.4249 -50.3464 42° Northeast  Level Estimated
03:58PM -27.3519 -50.2722 42° Northeast  Level Estimated
03:59PM -27.2789 -50.1981 42° Northeast  Level Estimated
04:00PM -27.2059 -50.1241 42° Northeast  Level Estimated
04:01PM -27.1328 -50.0502 42° Northeast  Level Estimated
04:02PM -27.0597 -49.9763 42° Northeast  Level Estimated
04:03PM -26.9865 -49.9026 42° Northeast  Level Estimated
04:04PM -26.9133 -49.8290 42° Northeast  Level Estimated
04:05PM -26.8401 -49.7555 42° Northeast  Level Estimated
04:06PM -26.7668 -49.6820 42° Northeast  Level Estimated
04:07PM -26.6935 -49.6087 42° Northeast  Level Estimated
04:08PM -26.6201 -49.5355 42° Northeast  Level Estimated
04:09PM -26.5467 -49.4623 42° Northeast  Level Estimated
04:10PM -26.4733 -49.3893 42° Northeast  Level Estimated
04:11PM -26.3999 -49.3163 42° Northeast  Level Estimated
04:12PM -26.3264 -49.2434 42° Northeast  Level Estimated
04:13PM -26.2528 -49.1707 42° Northeast  Level Estimated
04:14PM -26.1793 -49.0980 42° Northeast  Level Estimated
04:15PM -26.1056 -49.0254 42° Northeast  Level Estimated
04:16PM -26.0320 -48.9529 42° Northeast  Level Estimated
04:17PM -25.9583 -48.8805 41° Northeast  Level Estimated
04:18PM -25.8846 -48.8082 41° Northeast  Level Estimated
04:19PM -25.8108 -48.7359 41° Northeast  Level Estimated
04:20PM -25.7370 -48.6638 41° Northeast  Level Estimated
04:21PM -25.6632 -48.5917 41° Northeast  Level Estimated
04:22PM -25.5893 -48.5198 41° Northeast  Level Estimated
04:23PM -25.5154 -48.4479 41° Northeast  Level Estimated
04:24PM -25.4415 -48.3761 41° Northeast  Level Estimated
04:25PM -25.3675 -48.3044 41° Northeast  Level Estimated
04:26PM -25.2936 -48.2328 41° Northeast  Level Estimated
04:27PM -25.2195 -48.1613 41° Northeast  Level Estimated
04:28PM -25.1454 -48.0899 41° Northeast  Level Estimated
04:29PM -25.0713 -48.0185 41° Northeast  Level Estimated
04:30PM -24.9972 -47.9473 41° Northeast  Level Estimated
04:31PM -24.9230 -47.8761 41° Northeast  Level Estimated
04:32PM -24.8488 -47.8050 41° Northeast  Level Estimated
04:33PM -24.7746 -47.7340 41° Northeast  Level Estimated
04:34PM -24.7003 -47.6631 41° Northeast  Level Estimated
04:35PM -24.6260 -47.5922 41° Northeast  Level Estimated
04:36PM -24.5517 -47.5215 41° Northeast  Level Estimated
04:37PM -24.4773 -47.4508 41° Northeast  Level Estimated
04:38PM -24.4029 -47.3802 41° Northeast  Level Estimated
04:39PM -24.3284 -47.3097 41° Northeast  Level Estimated
04:40PM -24.2540 -47.2393 41° Northeast  Level Estimated
04:41PM -24.1795 -47.1690 41° Northeast  Level Estimated
04:42PM -24.1049 -47.0987 41° Northeast  Level Estimated
04:43PM -24.0304 -47.0286 41° Northeast  Level Estimated
04:44PM -23.9558 -46.9585 41° Northeast  Level Estimated
04:45PM -23.8811 -46.8885 41° Northeast  Level Estimated
04:46PM -23.8065 -46.8185 41° Northeast  Level Estimated
04:47PM -23.7318 -46.7487 41° Northeast  Level Estimated
04:48PM -23.6571 -46.6789 41° Northeast  Level Estimated
04:49PM -23.5823 -46.6092 41° Northeast  Level Estimated
04:50PM -23.5075 -46.5396 40° Northeast  Level Estimated
04:51PM -23.4327 -46.4701 40° Northeast  Level Estimated
04:52PM -23.4321 -46.4695 40° Northeast  Level Estimated
04:53PM -23.4321 -46.4695 350° North  Level Estimated
04:54PM -23.4321 -46.4695 350° North  Level Estimated
04:55PM -23.4321 -46.4695 350° North  Level Estimated
04:56PM -23.4321 -46.4695 350° North  Level Estimated
04:57PM -23.4321 -46.4695 350° North  Level Estimated
04:58PM -23.4321 -46.4695 350° North  Level Estimated
04:59PM -23.4321 -46.4695 350° North  Level Estimated
05:00PM -23.4321 -46.4695 350° North  Level Estimated
05:01PM -23.4321 -46.4695 350° North  Level Estimated
05:02PM -23.4321 -46.4695 350° North  Level Estimated
05:03PM -23.4321 -46.4695 350° North  Level Estimated
05:04PM -23.4321 -46.4695 350° North  Level Estimated
05:05PM -23.4321 -46.4695 350° North  Level Estimated
05:06PM -23.4321 -46.4695 350° North  Level Estimated
05:07PM -23.4321 -46.4695 350° North  Level Estimated